Time;durP1;ratioP1;P1;durP2;ratioP2;P2;SDS_P1;SDS_P2;PMS_P1;PMS_P2;Temp;Humidity;BMP_temperature;BMP_pressure;BME280_temperature;BME280_humidity;BME280_pressure;Samples;Min_cycle;Max_cycle;Signal;HPM_P1;HPM_P2
2023/01/02 08:53:33;;;;;;;;;;;;;;;10.14;71.71;98327.22;5199811;23;19940;-66
2023/01/02 08:56:17;;;;;;;;;;;;;;;10.21;72.00;98334.56;4868146;29;19928;-67
2023/01/02 08:58:42;;;;;;;;;;;;;;;10.28;71.57;98342.09;4873726;29;19927;-67
2023/01/02 09:01:07;;;;;;;;;;;;;;;10.34;71.62;98336.44;4876865;29;19920;-67
2023/01/02 09:03:32;;;;;;;;;;;;;;;10.40;71.17;98344.75;4858481;29;20042;-68
2023/01/02 09:05:58;;;;;;;;;;;;;;;10.48;70.81;98340.78;4851078;29;19924;-67
2023/01/02 09:08:23;;;;;;;;;;;;;;;10.54;71.01;98345.63;4856755;29;20015;-67
2023/01/02 09:10:48;;;;;;;;;;;;;;;10.60;70.90;98351.31;4859525;29;20014;-67
2023/01/02 09:13:13;;;;;;;;;;;;;;;10.66;70.39;98350.88;4856886;29;20010;-66
2023/01/02 09:15:42;;;;;;;;;;;;;;;10.75;70.52;98361.72;4859299;29;20083;-65
2023/01/02 09:18:08;;;;;;;;;;;;;;;10.81;70.66;98350.81;4866224;29;20056;-66
2023/01/02 09:20:33;;;;;;;;;;;;;;;10.87;70.50;98358.25;4858671;29;20396;-65
2023/01/02 09:22:58;;;;;;;;;;;;;;;10.93;69.79;98358.69;4857095;29;20503;-62
2023/01/02 09:25:23;;;;;;;;;;;;;;;11.00;69.95;98369.63;4860448;29;20347;-66
2023/01/02 09:27:49;;;;;;;;;;;;;;;11.08;69.32;98366.47;4860588;29;20765;-65
2023/01/02 09:30:14;;;;;;;;;;;;;;;11.14;69.15;98371.31;4861522;29;20351;-64
2023/01/02 09:32:39;;;;;;;;;;;;;;;11.22;68.93;98362.91;4859303;29;19920;-65
2023/01/02 09:35:04;;;;;;;;;;;;;;;11.30;68.75;98368.47;4857646;29;19988;-67
2023/01/02 09:37:30;;;;;;;;;;;;;;;11.38;68.82;98369.63;4855919;29;19924;-67
2023/01/02 09:39:55;;;;;;;;;;;;;;;11.46;68.12;98371.72;4859082;29;20067;-67
2023/01/02 09:42:20;;;;;;;;;;;;;;;11.54;67.82;98377.28;4854444;29;19920;-67
2023/01/02 09:44:48;;;;;;;;;;;;;;;11.62;67.08;98360.97;4857664;29;19992;-67
2023/01/02 09:47:16;;;;;;;;;;;;;;;11.71;67.36;98364.75;4852120;29;19928;-67
2023/01/02 09:49:47;;;;;;;;;;;;;;;11.80;67.48;98361.47;4862058;29;19923;-68
2023/01/02 09:52:14;;;;;;;;;;;;;;;11.91;66.75;98364.22;4857753;29;20311;-68
2023/01/02 09:54:39;;;;;;;;;;;;;;;12.00;66.63;98362.69;4857919;29;19973;-67
2023/01/02 09:57:07;;;;;;;;;;;;;;;12.07;66.81;98362.13;4860918;29;19920;-67
2023/01/02 09:59:35;;;;;;;;;;;;;;;12.15;66.63;98366.00;4861811;29;20376;-68
2023/01/02 10:02:00;;;;;;;;;;;;;;;12.24;66.75;98370.59;4859955;29;19924;-68
2023/01/02 10:04:44;;;;;;;;;;;;;;;12.31;66.29;98369.22;4860844;29;19931;-68
2023/01/02 10:07:13;;;;;;;;;;;;;;;12.40;66.28;98363.28;4859017;29;19931;-68
2023/01/02 10:09:41;;;;;;;;;;;;;;;12.48;65.80;98360.91;4857365;29;19951;-68
2023/01/02 10:12:12;;;;;;;;;;;;;;;12.56;65.77;98355.94;4860509;29;19920;-68
2023/01/02 10:14:43;;;;;;;;;;;;;;;12.62;65.66;98361.69;4860101;29;19926;-67
2023/01/02 10:17:09;;;;;;;;;;;;;;;12.68;65.45;98363.88;4858259;29;20011;-67
2023/01/02 10:19:44;;;;;;;;;;;;;;;12.72;65.14;98365.31;4859922;29;20313;-67
2023/01/02 10:22:11;;;;;;;;;;;;;;;12.78;65.01;98372.75;4859787;29;19920;-68
2023/01/02 10:24:42;;;;;;;;;;;;;;;12.85;64.79;98367.88;4856276;29;20395;-68
2023/01/02 10:27:17;;;;;;;;;;;;;;;12.91;64.62;98368.25;4836490;29;19940;-68
2023/01/02 10:29:45;;;;;;;;;;;;;;;12.98;64.60;98366.00;4875128;29;19920;-68
2023/01/02 10:32:17;;;;;;;;;;;;;;;13.04;64.21;98369.00;4858219;29;20402;-68
2023/01/02 10:34:44;;;;;;;;;;;;;;;13.09;64.37;98367.81;4859173;29;20358;-68
2023/01/02 10:37:11;;;;;;;;;;;;;;;13.14;64.43;98373.56;4858509;29;19920;-68
2023/01/02 10:39:36;;;;;;;;;;;;;;;13.19;64.54;98376.69;4861199;29;19920;-68
2023/01/02 10:42:03;;;;;;;;;;;;;;;13.24;64.44;98374.56;4864530;29;20007;-68
2023/01/02 10:44:32;;;;;;;;;;;;;;;13.29;64.35;98373.25;4843855;29;20010;-67
2023/01/02 10:46:58;;;;;;;;;;;;;;;13.35;64.37;98361.41;4845627;29;19973;-65
2023/01/02 10:49:23;;;;;;;;;;;;;;;13.42;64.21;98365.25;4855956;29;19925;-68
2023/01/02 10:52:17;;;;;;;;;;;;;;;13.49;63.83;98363.81;4861068;29;19959;-68
2023/01/02 10:54:46;;;;;;;;;;;;;;;13.63;63.38;98373.28;4846707;29;19943;-67
2023/01/02 10:57:12;;;;;;;;;;;;;;;13.76;62.97;98368.72;4856447;29;20322;-68
2023/01/02 10:59:37;;;;;;;;;;;;;;;13.90;62.57;98361.50;4859591;29;19920;-67
2023/01/02 11:02:02;;;;;;;;;;;;;;;14.01;62.55;98356.22;4858372;29;19920;-67
2023/01/02 11:04:28;;;;;;;;;;;;;;;14.11;62.19;98354.53;4858890;29;19920;-67
2023/01/02 11:06:54;;;;;;;;;;;;;;;14.23;62.09;98364.06;4856091;29;19954;-68
2023/01/02 11:09:24;;;;;;;;;;;;;;;14.34;61.55;98352.63;4855983;29;20026;-69
2023/01/02 11:12:09;;;;;;;;;;;;;;;14.43;61.17;98359.81;4853220;29;20007;-68
2023/01/02 11:14:35;;;;;;;;;;;;;;;14.54;60.85;98350.19;4854682;29;19948;-68
2023/01/02 11:17:02;;;;;;;;;;;;;;;14.63;61.02;98357.38;4853533;29;19920;-68
2023/01/02 11:19:27;;;;;;;;;;;;;;;14.72;60.57;98354.78;4858045;29;19924;-69
2023/01/02 11:21:52;;;;;;;;;;;;;;;14.84;60.39;98358.22;4860124;29;19927;-69
2023/01/02 11:24:24;;;;;;;;;;;;;;;14.91;59.70;98359.38;4857210;29;19924;-67
2023/01/02 11:26:50;;;;;;;;;;;;;;;15.04;59.79;98363.66;4857582;29;19973;-69
2023/01/02 11:29:26;;;;;;;;;;;;;;;15.08;59.63;98355.31;4856885;29;19928;-69
2023/01/02 11:31:52;;;;;;;;;;;;;;;15.18;58.71;98360.66;4857822;29;19928;-69
2023/01/02 11:34:21;;;;;;;;;;;;;;;15.30;58.39;98354.31;4857574;29;19927;-68
2023/01/02 11:36:59;;;;;;;;;;;;;;;15.40;57.59;98355.22;4854711;29;19931;-69
2023/01/02 11:39:24;;;;;;;;;;;;;;;15.50;57.54;98360.53;4842758;29;19920;-69
2023/01/02 18:33:03;;;;;;;;;;;;;;;11.93;62.43;98664.56;5349885;24;19935;-66
2023/01/02 18:35:30;;;;;;;;;;;;;;;11.95;62.61;98667.97;4855826;29;20203;-66
2023/01/02 18:37:56;;;;;;;;;;;;;;;11.95;62.53;98669.75;4858619;29;19924;-66
2023/01/02 18:40:27;;;;;;;;;;;;;;;11.91;62.83;98665.66;4845832;29;19924;-67
2023/01/02 18:42:54;;;;;;;;;;;;;;;11.93;62.99;98671.63;4862527;29;19924;-68
2023/01/02 18:45:19;;;;;;;;;;;;;;;11.99;63.18;98673.84;4872599;29;19968;-67
2023/01/02 18:47:45;;;;;;;;;;;;;;;11.94;63.29;98683.81;4872459;29;19924;-67
2023/01/02 18:50:10;;;;;;;;;;;;;;;11.89;63.43;98681.50;4851159;29;19928;-67
2023/01/02 18:52:35;;;;;;;;;;;;;;;11.90;63.83;98688.44;4860120;29;19928;-67
2023/01/02 18:55:01;;;;;;;;;;;;;;;11.87;64.03;98693.88;4873044;29;19924;-66
2023/01/02 18:57:31;;;;;;;;;;;;;;;11.90;63.83;98685.81;4883552;29;20529;-66
2023/01/02 18:59:59;;;;;;;;;;;;;;;11.96;63.98;98706.44;4843280;29;19943;-67
2023/01/02 19:02:46;;;;;;;;;;;;;;;11.91;63.80;98712.97;4874134;29;20440;-66
2023/01/02 19:05:22;;;;;;;;;;;;;;;11.85;64.51;98704.53;4868664;29;19984;-66
2023/01/02 19:07:47;;;;;;;;;;;;;;;11.86;63.94;98713.25;4862901;29;20501;-66
2023/01/02 19:10:12;;;;;;;;;;;;;;;11.86;64.37;98729.00;4857855;29;19927;-67
2023/01/02 19:15:38;;;;;;;;;;;;;;;11.82;65.04;98722.25;4869080;29;20011;-67
2023/01/02 19:18:24;;;;;;;;;;;;;;;11.81;65.46;98731.91;4861105;29;19927;-66
2023/01/02 19:20:54;;;;;;;;;;;;;;;11.79;65.59;98727.69;4859432;29;19928;-68
2023/01/02 19:23:30;;;;;;;;;;;;;;;11.76;65.51;98725.25;4873005;29;20014;-67
2023/01/02 19:25:56;;;;;;;;;;;;;;;11.75;65.51;98728.84;4856239;29;19980;-67
2023/01/02 19:28:22;;;;;;;;;;;;;;;11.73;65.81;98743.84;4862544;29;19946;-66
2023/01/02 19:30:47;;;;;;;;;;;;;;;11.71;66.73;98756.28;4856786;29;20324;-66
2023/01/02 19:33:31;;;;;;;;;;;;;;;11.70;65.95;98765.06;4870946;29;19949;-67
2023/01/02 19:36:00;;;;;;;;;;;;;;;11.74;65.59;98769.22;4853769;29;19920;-67
2023/01/02 19:38:28;;;;;;;;;;;;;;;11.81;66.42;98773.13;4864555;29;20010;-67
2023/01/02 19:40:55;;;;;;;;;;;;;;;11.93;68.90;98777.59;4851588;29;20299;-66
2023/01/02 19:43:21;;;;;;;;;;;;;;;11.90;67.56;98775.19;4855069;29;20023;-67
2023/01/02 19:45:46;;;;;;;;;;;;;;;11.87;67.02;98786.75;4852957;29;19949;-66
2023/01/02 19:48:11;;;;;;;;;;;;;;;11.84;68.15;98799.25;4848196;29;20014;-66
2023/01/02 19:50:37;;;;;;;;;;;;;;;11.79;68.26;98801.28;4858100;29;20381;-67
2023/01/02 19:53:02;;;;;;;;;;;;;;;11.78;68.51;98799.59;4856167;29;19927;-67
2023/01/02 19:55:27;;;;;;;;;;;;;;;11.75;68.54;98789.28;4857062;29;19920;-65
2023/01/02 19:57:53;;;;;;;;;;;;;;;11.70;68.76;98799.22;4857527;29;19920;-66
2023/01/02 20:00:18;;;;;;;;;;;;;;;11.70;69.21;98794.84;4860880;29;20015;-66
2023/01/02 20:02:50;;;;;;;;;;;;;;;11.65;69.67;98804.78;4857707;29;19999;-66
2023/01/02 20:05:17;;;;;;;;;;;;;;;11.68;68.99;98809.00;4862701;29;19934;-67
2023/01/02 20:07:42;;;;;;;;;;;;;;;11.70;69.66;98809.75;4856364;29;20341;-66
2023/01/02 20:10:07;;;;;;;;;;;;;;;11.60;69.78;98802.47;4860204;29;19920;-67
2023/01/02 20:12:33;;;;;;;;;;;;;;;11.55;69.53;98825.53;4857662;29;19920;-66
2023/01/02 20:14:59;;;;;;;;;;;;;;;11.47;69.99;98825.19;4872293;29;19920;-66
2023/01/02 20:17:24;;;;;;;;;;;;;;;11.45;69.88;98832.31;4858375;29;19927;-67
2023/01/02 20:19:49;;;;;;;;;;;;;;;11.40;69.41;98834.38;4852308;29;19927;-66
2023/01/02 20:22:15;;;;;;;;;;;;;;;11.35;69.66;98829.41;4858247;29;20299;-66
2023/01/02 20:24:40;;;;;;;;;;;;;;;11.34;70.15;98843.47;4872324;29;20362;-66
2023/01/02 20:27:05;;;;;;;;;;;;;;;11.31;69.95;98845.44;4855800;29;20365;-66
2023/01/02 20:29:30;;;;;;;;;;;;;;;11.26;70.41;98837.03;4857381;29;20363;-66
2023/01/02 20:31:55;;;;;;;;;;;;;;;11.27;70.15;98857.94;4858373;29;20007;-65
2023/01/02 20:34:21;;;;;;;;;;;;;;;11.27;71.02;98849.22;4858130;29;19963;-65
2023/01/02 20:36:46;;;;;;;;;;;;;;;11.22;71.25;98867.88;4856851;29;19955;-65
2023/01/02 20:39:11;;;;;;;;;;;;;;;11.13;71.61;98853.50;4858071;29;19920;-66
2023/01/02 20:41:40;;;;;;;;;;;;;;;11.06;71.26;98860.06;4855842;29;19920;-65
2023/01/02 20:44:08;;;;;;;;;;;;;;;11.04;70.65;98877.69;4852301;29;19927;-65
2023/01/02 20:46:34;;;;;;;;;;;;;;;10.97;70.65;98894.75;4850491;29;19988;-66
2023/01/02 20:48:59;;;;;;;;;;;;;;;10.93;70.34;98885.34;4856492;29;20369;-66
2023/01/02 20:51:24;;;;;;;;;;;;;;;10.89;69.89;98886.47;4855221;29;20019;-66
2023/01/02 20:53:49;;;;;;;;;;;;;;;10.85;70.37;98890.22;4861191;29;19926;-65
2023/01/02 20:56:14;;;;;;;;;;;;;;;10.79;70.84;98890.59;4873046;29;20015;-66
2023/01/02 20:58:40;;;;;;;;;;;;;;;10.77;71.13;98893.31;4856271;29;20012;-66
2023/01/02 21:01:05;;;;;;;;;;;;;;;10.74;70.80;98898.72;4856410;29;19925;-66
2023/01/02 21:03:30;;;;;;;;;;;;;;;10.71;70.40;98892.81;4853920;29;20052;-66
2023/01/02 21:05:55;;;;;;;;;;;;;;;10.73;71.38;98890.94;4858798;29;19995;-66
2023/01/02 21:08:21;;;;;;;;;;;;;;;10.67;70.93;98908.72;4847807;29;19967;-65
2023/01/02 21:10:46;;;;;;;;;;;;;;;10.59;71.77;98897.81;4861401;29;19950;-66
2023/01/02 21:13:11;;;;;;;;;;;;;;;10.54;71.52;98902.50;4859840;29;20014;-65
2023/01/02 21:15:40;;;;;;;;;;;;;;;10.64;73.25;98908.06;4861738;29;19924;-65
2023/01/02 21:18:06;;;;;;;;;;;;;;;10.62;72.00;98918.63;4860198;29;19920;-66
2023/01/02 21:20:31;;;;;;;;;;;;;;;10.53;72.24;98923.56;4858861;29;19931;-65
2023/01/02 21:22:56;;;;;;;;;;;;;;;10.48;72.81;98915.97;4872450;29;19966;-66
2023/01/02 21:25:21;;;;;;;;;;;;;;;10.41;73.22;98927.72;4857305;29;19967;-65
